sensor_id;sensor_type;location;lat;lon;timestamp;P1;durP1;ratioP1;P2;durP2;ratioP2
58081;SDS011;43876;55.576;38.242;2022-08-21T00:01:52;51.88;;;31.52;;
58081;SDS011;43876;55.576;38.242;2022-08-21T00:04:19;51.70;;;30.95;;
58081;SDS011;43876;55.576;38.242;2022-08-21T00:06:49;51.90;;;30.98;;
58081;SDS011;43876;55.576;38.242;2022-08-21T00:09:17;43.60;;;28.20;;
58081;SDS011;43876;55.576;38.242;2022-08-21T00:11:46;45.45;;;28.60;;
58081;SDS011;43876;55.576;38.242;2022-08-21T00:14:14;46.33;;;29.35;;
58081;SDS011;43876;55.576;38.242;2022-08-21T00:16:42;45.58;;;27.92;;
58081;SDS011;43876;55.576;38.242;2022-08-21T00:19:09;42.00;;;27.38;;
58081;SDS011;43876;55.576;38.242;2022-08-21T00:21:36;43.92;;;27.65;;
58081;SDS011;43876;55.576;38.242;2022-08-21T00:24:03;44.80;;;29.73;;
58081;SDS011;43876;55.576;38.242;2022-08-21T00:26:33;39.95;;;26.67;;
58081;SDS011;43876;55.576;38.242;2022-08-21T00:29:03;40.88;;;27.75;;
58081;SDS011;43876;55.576;38.242;2022-08-21T00:31:30;42.13;;;27.45;;
58081;SDS011;43876;55.576;38.242;2022-08-21T00:33:58;41.22;;;27.63;;
58081;SDS011;43876;55.576;38.242;2022-08-21T00:36:27;43.58;;;28.08;;
58081;SDS011;43876;55.576;38.242;2022-08-21T00:38:55;50.13;;;28.70;;
58081;SDS011;43876;55.576;38.242;2022-08-21T00:41:22;44.63;;;28.80;;
58081;SDS011;43876;55.576;38.242;2022-08-21T00:44:05;44.75;;;28.17;;
58081;SDS011;43876;55.576;38.242;2022-08-21T00:46:34;44.55;;;29.83;;
58081;SDS011;43876;55.576;38.242;2022-08-21T00:49:02;51.55;;;30.50;;
58081;SDS011;43876;55.576;38.242;2022-08-21T00:51:39;44.00;;;29.80;;
58081;SDS011;43876;55.576;38.242;2022-08-21T00:54:07;47.63;;;30.48;;
58081;SDS011;43876;55.576;38.242;2022-08-21T00:56:44;50.78;;;29.52;;
58081;SDS011;43876;55.576;38.242;2022-08-21T00:59:12;47.20;;;30.80;;
58081;SDS011;43876;55.576;38.242;2022-08-21T01:01:39;48.05;;;30.33;;
58081;SDS011;43876;55.576;38.242;2022-08-21T01:04:06;48.28;;;29.58;;
58081;SDS011;43876;55.576;38.242;2022-08-21T01:06:34;46.58;;;28.88;;
58081;SDS011;43876;55.576;38.242;2022-08-21T01:09:02;49.35;;;29.20;;
58081;SDS011;43876;55.576;38.242;2022-08-21T01:11:30;47.72;;;31.73;;
58081;SDS011;43876;55.576;38.242;2022-08-21T01:13:57;44.72;;;30.80;;
58081;SDS011;43876;55.576;38.242;2022-08-21T01:16:25;52.53;;;32.35;;
58081;SDS011;43876;55.576;38.242;2022-08-21T01:18:52;50.35;;;32.85;;
58081;SDS011;43876;55.576;38.242;2022-08-21T01:21:23;46.38;;;30.95;;
58081;SDS011;43876;55.576;38.242;2022-08-21T01:23:54;48.95;;;32.13;;
58081;SDS011;43876;55.576;38.242;2022-08-21T01:26:24;52.45;;;32.80;;
58081;SDS011;43876;55.576;38.242;2022-08-21T01:31:46;55.92;;;34.60;;
58081;SDS011;43876;55.576;38.242;2022-08-21T01:34:13;50.80;;;32.25;;
58081;SDS011;43876;55.576;38.242;2022-08-21T01:36:42;49.15;;;33.72;;
58081;SDS011;43876;55.576;38.242;2022-08-21T01:39:11;56.50;;;35.87;;
58081;SDS011;43876;55.576;38.242;2022-08-21T01:41:38;51.00;;;33.85;;
58081;SDS011;43876;55.576;38.242;2022-08-21T01:44:05;51.13;;;34.28;;
58081;SDS011;43876;55.576;38.242;2022-08-21T01:46:33;54.33;;;36.33;;
58081;SDS011;43876;55.576;38.242;2022-08-21T01:49:03;52.95;;;34.70;;
58081;SDS011;43876;55.576;38.242;2022-08-21T01:51:31;58.38;;;36.30;;
58081;SDS011;43876;55.576;38.242;2022-08-21T01:53:59;53.85;;;37.35;;
58081;SDS011;43876;55.576;38.242;2022-08-21T01:56:26;56.25;;;37.50;;
58081;SDS011;43876;55.576;38.242;2022-08-21T01:58:54;54.60;;;36.50;;
58081;SDS011;43876;55.576;38.242;2022-08-21T02:01:21;57.60;;;37.20;;
58081;SDS011;43876;55.576;38.242;2022-08-21T02:03:48;58.75;;;38.17;;
58081;SDS011;43876;55.576;38.242;2022-08-21T02:06:16;61.75;;;39.58;;
58081;SDS011;43876;55.576;38.242;2022-08-21T02:08:45;58.88;;;39.80;;
58081;SDS011;43876;55.576;38.242;2022-08-21T02:11:12;66.60;;;40.67;;
58081;SDS011;43876;55.576;38.242;2022-08-21T02:13:40;62.47;;;41.47;;
58081;SDS011;43876;55.576;38.242;2022-08-21T02:16:07;60.28;;;40.45;;
58081;SDS011;43876;55.576;38.242;2022-08-21T02:18:34;64.07;;;41.08;;
58081;SDS011;43876;55.576;38.242;2022-08-21T02:21:02;62.53;;;42.15;;
58081;SDS011;43876;55.576;38.242;2022-08-21T02:23:30;61.67;;;42.00;;
58081;SDS011;43876;55.576;38.242;2022-08-21T02:25:58;62.80;;;42.38;;
58081;SDS011;43876;55.576;38.242;2022-08-21T02:28:27;66.10;;;42.40;;
58081;SDS011;43876;55.576;38.242;2022-08-21T02:30:55;69.18;;;44.00;;
58081;SDS011;43876;55.576;38.242;2022-08-21T02:33:23;63.13;;;43.97;;
58081;SDS011;43876;55.576;38.242;2022-08-21T02:35:50;67.72;;;45.13;;
58081;SDS011;43876;55.576;38.242;2022-08-21T02:38:21;68.40;;;45.85;;
58081;SDS011;43876;55.576;38.242;2022-08-21T02:40:54;64.82;;;46.60;;
58081;SDS011;43876;55.576;38.242;2022-08-21T02:43:22;69.82;;;47.28;;
58081;SDS011;43876;55.576;38.242;2022-08-21T02:45:51;73.38;;;47.70;;
58081;SDS011;43876;55.576;38.242;2022-08-21T02:48:21;69.50;;;48.28;;
58081;SDS011;43876;55.576;38.242;2022-08-21T02:50:57;80.43;;;48.90;;
58081;SDS011;43876;55.576;38.242;2022-08-21T02:53:30;73.88;;;48.28;;
58081;SDS011;43876;55.576;38.242;2022-08-21T02:55:58;68.78;;;47.45;;
58081;SDS011;43876;55.576;38.242;2022-08-21T02:58:28;72.22;;;47.33;;
58081;SDS011;43876;55.576;38.242;2022-08-21T03:00:58;72.57;;;49.83;;
58081;SDS011;43876;55.576;38.242;2022-08-21T03:03:25;75.28;;;50.72;;
58081;SDS011;43876;55.576;38.242;2022-08-21T03:05:53;72.63;;;50.78;;
58081;SDS011;43876;55.576;38.242;2022-08-21T03:08:22;77.53;;;51.13;;
58081;SDS011;43876;55.576;38.242;2022-08-21T03:10:53;78.97;;;50.55;;
58081;SDS011;43876;55.576;38.242;2022-08-21T03:13:20;76.55;;;51.50;;
58081;SDS011;43876;55.576;38.242;2022-08-21T03:15:48;78.45;;;51.85;;
58081;SDS011;43876;55.576;38.242;2022-08-21T03:18:16;82.20;;;51.55;;
58081;SDS011;43876;55.576;38.242;2022-08-21T03:20:44;77.57;;;51.45;;
58081;SDS011;43876;55.576;38.242;2022-08-21T03:23:14;77.70;;;52.08;;
58081;SDS011;43876;55.576;38.242;2022-08-21T03:25:45;75.13;;;53.08;;
58081;SDS011;43876;55.576;38.242;2022-08-21T03:28:14;71.72;;;52.70;;
58081;SDS011;43876;55.576;38.242;2022-08-21T03:30:48;71.68;;;50.53;;
58081;SDS011;43876;55.576;38.242;2022-08-21T03:33:17;76.28;;;50.67;;
58081;SDS011;43876;55.576;38.242;2022-08-21T03:35:47;72.93;;;50.72;;
58081;SDS011;43876;55.576;38.242;2022-08-21T03:38:22;75.80;;;53.20;;
58081;SDS011;43876;55.576;38.242;2022-08-21T03:40:52;67.78;;;52.72;;
58081;SDS011;43876;55.576;38.242;2022-08-21T03:43:20;81.30;;;54.45;;
58081;SDS011;43876;55.576;38.242;2022-08-21T03:45:47;77.47;;;54.53;;
58081;SDS011;43876;55.576;38.242;2022-08-21T03:48:14;82.25;;;56.53;;
58081;SDS011;43876;55.576;38.242;2022-08-21T03:50:42;80.20;;;54.20;;
58081;SDS011;43876;55.576;38.242;2022-08-21T03:53:11;79.15;;;55.78;;
58081;SDS011;43876;55.576;38.242;2022-08-21T03:55:44;77.35;;;56.28;;
58081;SDS011;43876;55.576;38.242;2022-08-21T04:00:43;77.10;;;54.97;;
58081;SDS011;43876;55.576;38.242;2022-08-21T04:03:15;79.43;;;55.70;;
58081;SDS011;43876;55.576;38.242;2022-08-21T04:05:42;81.45;;;56.65;;
58081;SDS011;43876;55.576;38.242;2022-08-21T04:08:12;81.15;;;56.97;;
58081;SDS011;43876;55.576;38.242;2022-08-21T04:10:41;82.00;;;57.83;;
58081;SDS011;43876;55.576;38.242;2022-08-21T04:13:10;82.13;;;58.78;;
58081;SDS011;43876;55.576;38.242;2022-08-21T04:15:38;81.78;;;56.53;;
58081;SDS011;43876;55.576;38.242;2022-08-21T04:18:05;76.72;;;56.75;;
58081;SDS011;43876;55.576;38.242;2022-08-21T04:20:32;85.18;;;56.33;;
58081;SDS011;43876;55.576;38.242;2022-08-21T04:23:00;77.22;;;55.55;;
58081;SDS011;43876;55.576;38.242;2022-08-21T04:25:28;79.05;;;54.60;;
58081;SDS011;43876;55.576;38.242;2022-08-21T04:27:56;80.90;;;57.45;;
58081;SDS011;43876;55.576;38.242;2022-08-21T04:30:24;83.85;;;55.72;;
58081;SDS011;43876;55.576;38.242;2022-08-21T04:32:55;81.78;;;56.20;;
58081;SDS011;43876;55.576;38.242;2022-08-21T04:35:24;82.70;;;54.95;;
58081;SDS011;43876;55.576;38.242;2022-08-21T04:37:53;76.88;;;55.92;;
58081;SDS011;43876;55.576;38.242;2022-08-21T04:40:21;79.68;;;55.70;;
58081;SDS011;43876;55.576;38.242;2022-08-21T04:43:09;79.25;;;53.70;;
58081;SDS011;43876;55.576;38.242;2022-08-21T04:45:39;80.88;;;55.40;;
58081;SDS011;43876;55.576;38.242;2022-08-21T04:48:09;75.13;;;54.67;;
58081;SDS011;43876;55.576;38.242;2022-08-21T04:56:06;79.72;;;55.72;;
58081;SDS011;43876;55.576;38.242;2022-08-21T04:58:36;74.88;;;53.95;;
58081;SDS011;43876;55.576;38.242;2022-08-21T05:01:07;73.75;;;53.63;;
58081;SDS011;43876;55.576;38.242;2022-08-21T05:03:38;74.32;;;53.55;;
58081;SDS011;43876;55.576;38.242;2022-08-21T05:08:37;73.82;;;55.45;;
58081;SDS011;43876;55.576;38.242;2022-08-21T05:11:06;78.47;;;54.80;;
58081;SDS011;43876;55.576;38.242;2022-08-21T05:13:33;71.10;;;52.60;;
58081;SDS011;43876;55.576;38.242;2022-08-21T05:16:00;76.63;;;54.65;;
58081;SDS011;43876;55.576;38.242;2022-08-21T05:18:27;72.22;;;52.42;;
58081;SDS011;43876;55.576;38.242;2022-08-21T05:20:54;73.15;;;53.97;;
58081;SDS011;43876;55.576;38.242;2022-08-21T05:23:21;75.90;;;53.35;;
58081;SDS011;43876;55.576;38.242;2022-08-21T05:25:48;75.75;;;55.92;;
58081;SDS011;43876;55.576;38.242;2022-08-21T05:28:15;74.68;;;54.40;;
58081;SDS011;43876;55.576;38.242;2022-08-21T05:30:45;76.32;;;54.15;;
58081;SDS011;43876;55.576;38.242;2022-08-21T05:33:12;75.78;;;55.15;;
58081;SDS011;43876;55.576;38.242;2022-08-21T05:35:39;80.78;;;56.03;;
58081;SDS011;43876;55.576;38.242;2022-08-21T05:38:07;75.25;;;55.17;;
58081;SDS011;43876;55.576;38.242;2022-08-21T05:40:44;76.75;;;54.47;;
58081;SDS011;43876;55.576;38.242;2022-08-21T05:43:13;76.53;;;53.05;;
58081;SDS011;43876;55.576;38.242;2022-08-21T05:45:40;72.90;;;55.03;;
58081;SDS011;43876;55.576;38.242;2022-08-21T05:48:12;71.00;;;52.30;;
58081;SDS011;43876;55.576;38.242;2022-08-21T05:50:42;78.75;;;56.13;;
58081;SDS011;43876;55.576;38.242;2022-08-21T05:53:10;77.50;;;53.58;;
58081;SDS011;43876;55.576;38.242;2022-08-21T05:55:38;76.75;;;56.60;;
58081;SDS011;43876;55.576;38.242;2022-08-21T05:58:15;75.45;;;53.35;;
58081;SDS011;43876;55.576;38.242;2022-08-21T06:00:45;73.28;;;53.25;;
58081;SDS011;43876;55.576;38.242;2022-08-21T06:05:44;75.40;;;53.60;;
58081;SDS011;43876;55.576;38.242;2022-08-21T06:08:12;72.38;;;50.92;;
58081;SDS011;43876;55.576;38.242;2022-08-21T06:10:40;76.88;;;52.35;;
58081;SDS011;43876;55.576;38.242;2022-08-21T06:13:08;73.68;;;53.47;;
58081;SDS011;43876;55.576;38.242;2022-08-21T06:15:37;68.47;;;50.83;;
58081;SDS011;43876;55.576;38.242;2022-08-21T06:18:04;68.38;;;51.92;;
58081;SDS011;43876;55.576;38.242;2022-08-21T06:20:32;65.90;;;46.50;;
58081;SDS011;43876;55.576;38.242;2022-08-21T06:22:59;68.50;;;47.78;;
58081;SDS011;43876;55.576;38.242;2022-08-21T06:25:27;64.72;;;47.97;;
58081;SDS011;43876;55.576;38.242;2022-08-21T06:28:01;62.53;;;45.50;;
58081;SDS011;43876;55.576;38.242;2022-08-21T06:30:29;64.53;;;47.05;;
58081;SDS011;43876;55.576;38.242;2022-08-21T06:32:56;67.18;;;47.28;;
58081;SDS011;43876;55.576;38.242;2022-08-21T06:35:24;60.42;;;44.40;;
58081;SDS011;43876;55.576;38.242;2022-08-21T06:37:51;65.63;;;46.58;;
58081;SDS011;43876;55.576;38.242;2022-08-21T06:40:18;62.92;;;45.97;;
58081;SDS011;43876;55.576;38.242;2022-08-21T06:42:51;60.65;;;44.35;;
58081;SDS011;43876;55.576;38.242;2022-08-21T06:45:19;62.97;;;46.25;;
58081;SDS011;43876;55.576;38.242;2022-08-21T06:47:47;64.78;;;46.50;;
58081;SDS011;43876;55.576;38.242;2022-08-21T06:50:14;58.65;;;42.13;;
58081;SDS011;43876;55.576;38.242;2022-08-21T06:52:41;58.20;;;41.55;;
58081;SDS011;43876;55.576;38.242;2022-08-21T06:55:09;55.17;;;40.55;;
58081;SDS011;43876;55.576;38.242;2022-08-21T06:57:37;51.70;;;39.38;;
58081;SDS011;43876;55.576;38.242;2022-08-21T07:00:05;50.58;;;38.45;;
58081;SDS011;43876;55.576;38.242;2022-08-21T07:02:33;52.92;;;36.90;;
58081;SDS011;43876;55.576;38.242;2022-08-21T07:05:00;49.60;;;35.08;;
58081;SDS011;43876;55.576;38.242;2022-08-21T07:07:44;52.45;;;34.85;;
58081;SDS011;43876;55.576;38.242;2022-08-21T07:10:13;47.95;;;33.92;;
58081;SDS011;43876;55.576;38.242;2022-08-21T07:12:48;51.35;;;34.33;;
58081;SDS011;43876;55.576;38.242;2022-08-21T07:15:30;49.63;;;33.85;;
58081;SDS011;43876;55.576;38.242;2022-08-21T07:17:58;47.03;;;33.58;;
58081;SDS011;43876;55.576;38.242;2022-08-21T07:20:27;49.35;;;34.00;;
58081;SDS011;43876;55.576;38.242;2022-08-21T07:22:55;50.47;;;34.87;;
58081;SDS011;43876;55.576;38.242;2022-08-21T07:25:26;50.72;;;34.65;;
58081;SDS011;43876;55.576;38.242;2022-08-21T07:27:54;46.38;;;31.92;;
58081;SDS011;43876;55.576;38.242;2022-08-21T07:30:21;42.40;;;29.38;;
58081;SDS011;43876;55.576;38.242;2022-08-21T07:32:49;45.08;;;31.42;;
58081;SDS011;43876;55.576;38.242;2022-08-21T07:35:17;44.22;;;30.10;;
58081;SDS011;43876;55.576;38.242;2022-08-21T07:37:45;47.77;;;32.00;;
58081;SDS011;43876;55.576;38.242;2022-08-21T07:40:13;44.70;;;31.33;;
58081;SDS011;43876;55.576;38.242;2022-08-21T07:42:43;46.83;;;32.60;;
58081;SDS011;43876;55.576;38.242;2022-08-21T07:45:13;46.15;;;31.77;;
58081;SDS011;43876;55.576;38.242;2022-08-21T07:47:40;44.22;;;31.58;;
58081;SDS011;43876;55.576;38.242;2022-08-21T07:50:12;45.35;;;31.70;;
58081;SDS011;43876;55.576;38.242;2022-08-21T07:52:40;48.25;;;32.25;;
58081;SDS011;43876;55.576;38.242;2022-08-21T07:55:09;46.35;;;30.42;;
58081;SDS011;43876;55.576;38.242;2022-08-21T07:57:38;43.03;;;30.40;;
58081;SDS011;43876;55.576;38.242;2022-08-21T08:00:06;42.40;;;28.75;;
58081;SDS011;43876;55.576;38.242;2022-08-21T08:02:39;43.78;;;28.65;;
58081;SDS011;43876;55.576;38.242;2022-08-21T08:05:08;39.58;;;27.40;;
58081;SDS011;43876;55.576;38.242;2022-08-21T08:07:37;41.83;;;26.17;;
58081;SDS011;43876;55.576;38.242;2022-08-21T08:10:05;33.25;;;23.90;;
58081;SDS011;43876;55.576;38.242;2022-08-21T08:12:35;36.95;;;23.75;;
58081;SDS011;43876;55.576;38.242;2022-08-21T08:17:31;34.58;;;24.15;;
58081;SDS011;43876;55.576;38.242;2022-08-21T08:19:59;32.70;;;22.75;;
58081;SDS011;43876;55.576;38.242;2022-08-21T08:22:29;32.30;;;19.73;;
58081;SDS011;43876;55.576;38.242;2022-08-21T08:24:56;33.00;;;20.65;;
58081;SDS011;43876;55.576;38.242;2022-08-21T08:27:23;33.33;;;21.45;;
58081;SDS011;43876;55.576;38.242;2022-08-21T08:29:50;35.40;;;21.73;;
58081;SDS011;43876;55.576;38.242;2022-08-21T08:32:18;37.58;;;24.05;;
58081;SDS011;43876;55.576;38.242;2022-08-21T08:34:45;37.08;;;23.92;;
58081;SDS011;43876;55.576;38.242;2022-08-21T08:37:15;38.78;;;25.35;;
58081;SDS011;43876;55.576;38.242;2022-08-21T08:39:43;37.05;;;22.52;;
58081;SDS011;43876;55.576;38.242;2022-08-21T08:45:03;34.17;;;22.42;;
58081;SDS011;43876;55.576;38.242;2022-08-21T08:47:35;31.98;;;22.33;;
58081;SDS011;43876;55.576;38.242;2022-08-21T08:52:57;32.40;;;20.48;;
58081;SDS011;43876;55.576;38.242;2022-08-21T08:55:35;33.53;;;19.55;;
58081;SDS011;43876;55.576;38.242;2022-08-21T08:58:05;34.08;;;20.88;;
58081;SDS011;43876;55.576;38.242;2022-08-21T09:00:33;33.20;;;20.10;;
58081;SDS011;43876;55.576;38.242;2022-08-21T09:03:01;29.35;;;19.45;;
58081;SDS011;43876;55.576;38.242;2022-08-21T09:08:32;25.88;;;17.60;;
58081;SDS011;43876;55.576;38.242;2022-08-21T09:11:09;25.98;;;16.00;;
58081;SDS011;43876;55.576;38.242;2022-08-21T09:16:31;27.30;;;15.95;;
58081;SDS011;43876;55.576;38.242;2022-08-21T09:22:19;26.95;;;17.65;;
58081;SDS011;43876;55.576;38.242;2022-08-21T09:27:34;28.65;;;17.30;;
58081;SDS011;43876;55.576;38.242;2022-08-21T09:30:04;26.43;;;17.00;;
58081;SDS011;43876;55.576;38.242;2022-08-21T09:32:34;26.25;;;17.13;;
58081;SDS011;43876;55.576;38.242;2022-08-21T09:35:16;25.90;;;17.13;;
58081;SDS011;43876;55.576;38.242;2022-08-21T09:43:02;27.05;;;18.00;;
58081;SDS011;43876;55.576;38.242;2022-08-21T09:45:35;26.13;;;17.15;;
58081;SDS011;43876;55.576;38.242;2022-08-21T09:48:12;29.73;;;15.05;;
58081;SDS011;43876;55.576;38.242;2022-08-21T09:50:40;24.10;;;14.18;;
58081;SDS011;43876;55.576;38.242;2022-08-21T09:53:19;26.70;;;14.63;;
58081;SDS011;43876;55.576;38.242;2022-08-21T09:55:53;24.77;;;15.52;;
58081;SDS011;43876;55.576;38.242;2022-08-21T09:58:51;30.20;;;17.08;;
58081;SDS011;43876;55.576;38.242;2022-08-21T10:01:22;25.33;;;17.08;;
58081;SDS011;43876;55.576;38.242;2022-08-21T10:04:04;29.70;;;18.85;;
58081;SDS011;43876;55.576;38.242;2022-08-21T10:06:35;26.35;;;16.40;;
58081;SDS011;43876;55.576;38.242;2022-08-21T10:09:08;32.10;;;17.92;;
58081;SDS011;43876;55.576;38.242;2022-08-21T10:11:50;25.77;;;17.50;;
58081;SDS011;43876;55.576;38.242;2022-08-21T10:15:02;29.70;;;18.08;;
58081;SDS011;43876;55.576;38.242;2022-08-21T10:17:49;32.03;;;17.90;;
58081;SDS011;43876;55.576;38.242;2022-08-21T10:20:22;26.70;;;16.77;;
58081;SDS011;43876;55.576;38.242;2022-08-21T10:23:20;27.45;;;15.13;;
58081;SDS011;43876;55.576;38.242;2022-08-21T10:26:00;24.95;;;15.95;;
58081;SDS011;43876;55.576;38.242;2022-08-21T10:37:27;27.13;;;17.13;;
58081;SDS011;43876;55.576;38.242;2022-08-21T10:47:34;22.40;;;14.52;;
58081;SDS011;43876;55.576;38.242;2022-08-21T10:50:12;28.73;;;15.15;;
58081;SDS011;43876;55.576;38.242;2022-08-21T10:53:15;26.15;;;16.25;;
58081;SDS011;43876;55.576;38.242;2022-08-21T10:55:43;27.50;;;15.85;;
58081;SDS011;43876;55.576;38.242;2022-08-21T10:58:19;25.98;;;15.32;;
58081;SDS011;43876;55.576;38.242;2022-08-21T11:00:53;24.67;;;13.80;;
58081;SDS011;43876;55.576;38.242;2022-08-21T11:05:55;24.67;;;12.00;;
58081;SDS011;43876;55.576;38.242;2022-08-21T11:08:37;21.10;;;12.55;;
58081;SDS011;43876;55.576;38.242;2022-08-21T11:11:16;23.83;;;12.25;;
58081;SDS011;43876;55.576;38.242;2022-08-21T11:13:54;21.58;;;13.52;;
58081;SDS011;43876;55.576;38.242;2022-08-21T11:21:52;23.75;;;12.75;;
58081;SDS011;43876;55.576;38.242;2022-08-21T11:29:32;19.55;;;11.13;;
58081;SDS011;43876;55.576;38.242;2022-08-21T11:45:48;26.92;;;14.50;;
58081;SDS011;43876;55.576;38.242;2022-08-21T11:51:18;25.02;;;14.38;;
58081;SDS011;43876;55.576;38.242;2022-08-21T11:53:53;23.48;;;13.45;;
58081;SDS011;43876;55.576;38.242;2022-08-21T11:56:37;22.80;;;13.90;;
58081;SDS011;43876;55.576;38.242;2022-08-21T11:59:14;24.75;;;14.88;;
58081;SDS011;43876;55.576;38.242;2022-08-21T12:01:48;25.23;;;14.60;;
58081;SDS011;43876;55.576;38.242;2022-08-21T12:07:10;22.77;;;15.13;;
58081;SDS011;43876;55.576;38.242;2022-08-21T12:09:52;26.77;;;16.25;;
58081;SDS011;43876;55.576;38.242;2022-08-21T12:17:36;29.65;;;19.08;;
58081;SDS011;43876;55.576;38.242;2022-08-21T12:22:41;33.47;;;22.33;;
58081;SDS011;43876;55.576;38.242;2022-08-21T12:25:19;30.80;;;22.33;;
58081;SDS011;43876;55.576;38.242;2022-08-21T12:28:02;36.13;;;23.08;;
58081;SDS011;43876;55.576;38.242;2022-08-21T12:30:36;34.22;;;23.83;;
58081;SDS011;43876;55.576;38.242;2022-08-21T12:33:17;37.72;;;26.52;;
58081;SDS011;43876;55.576;38.242;2022-08-21T12:36:13;40.53;;;28.73;;
58081;SDS011;43876;55.576;38.242;2022-08-21T12:38:58;41.42;;;31.88;;
58081;SDS011;43876;55.576;38.242;2022-08-21T12:41:34;40.08;;;31.50;;
58081;SDS011;43876;55.576;38.242;2022-08-21T12:44:35;44.13;;;32.05;;
58081;SDS011;43876;55.576;38.242;2022-08-21T12:47:13;42.35;;;31.27;;
58081;SDS011;43876;55.576;38.242;2022-08-21T12:49:55;44.03;;;32.17;;
58081;SDS011;43876;55.576;38.242;2022-08-21T12:52:34;43.03;;;31.60;;
58081;SDS011;43876;55.576;38.242;2022-08-21T12:55:10;47.38;;;35.88;;
58081;SDS011;43876;55.576;38.242;2022-08-21T12:57:42;48.72;;;35.15;;
58081;SDS011;43876;55.576;38.242;2022-08-21T13:00:11;46.38;;;36.50;;
58081;SDS011;43876;55.576;38.242;2022-08-21T13:02:45;47.67;;;36.28;;
58081;SDS011;43876;55.576;38.242;2022-08-21T13:05:16;39.00;;;32.63;;
58081;SDS011;43876;55.576;38.242;2022-08-21T13:07:54;41.70;;;31.50;;
58081;SDS011;43876;55.576;38.242;2022-08-21T13:10:26;40.97;;;30.83;;
58081;SDS011;43876;55.576;38.242;2022-08-21T13:12:57;40.17;;;32.55;;
58081;SDS011;43876;55.576;38.242;2022-08-21T13:15:39;43.88;;;31.60;;
58081;SDS011;43876;55.576;38.242;2022-08-21T13:18:23;41.78;;;31.80;;
58081;SDS011;43876;55.576;38.242;2022-08-21T13:21:09;41.08;;;31.05;;
58081;SDS011;43876;55.576;38.242;2022-08-21T13:23:38;43.25;;;31.30;;
58081;SDS011;43876;55.576;38.242;2022-08-21T13:26:16;41.75;;;31.75;;
58081;SDS011;43876;55.576;38.242;2022-08-21T13:28:46;36.88;;;29.15;;
58081;SDS011;43876;55.576;38.242;2022-08-21T13:31:22;36.63;;;27.75;;
58081;SDS011;43876;55.576;38.242;2022-08-21T13:33:53;40.53;;;28.60;;
58081;SDS011;43876;55.576;38.242;2022-08-21T13:36:55;36.05;;;29.00;;
58081;SDS011;43876;55.576;38.242;2022-08-21T13:39:18;43.47;;;30.52;;
58081;SDS011;43876;55.576;38.242;2022-08-21T13:41:48;39.70;;;29.92;;
58081;SDS011;43876;55.576;38.242;2022-08-21T13:46:46;40.33;;;28.48;;
58081;SDS011;43876;55.576;38.242;2022-08-21T13:49:18;38.92;;;27.55;;
58081;SDS011;43876;55.576;38.242;2022-08-21T13:51:47;35.22;;;25.08;;
58081;SDS011;43876;55.576;38.242;2022-08-21T13:54:23;29.85;;;22.23;;
58081;SDS011;43876;55.576;38.242;2022-08-21T13:56:53;26.90;;;15.80;;
58081;SDS011;43876;55.576;38.242;2022-08-21T13:59:26;18.73;;;12.57;;
58081;SDS011;43876;55.576;38.242;2022-08-21T14:01:58;13.48;;;8.45;;
58081;SDS011;43876;55.576;38.242;2022-08-21T14:04:42;14.40;;;6.78;;
58081;SDS011;43876;55.576;38.242;2022-08-21T14:07:40;13.90;;;6.32;;
58081;SDS011;43876;55.576;38.242;2022-08-21T14:10:13;10.37;;;4.00;;
58081;SDS011;43876;55.576;38.242;2022-08-21T14:12:51;8.70;;;3.88;;
58081;SDS011;43876;55.576;38.242;2022-08-21T14:15:26;7.63;;;3.45;;
58081;SDS011;43876;55.576;38.242;2022-08-21T14:20:44;8.35;;;3.00;;
58081;SDS011;43876;55.576;38.242;2022-08-21T14:23:11;7.20;;;2.58;;
58081;SDS011;43876;55.576;38.242;2022-08-21T14:25:41;6.85;;;2.85;;
58081;SDS011;43876;55.576;38.242;2022-08-21T14:28:23;7.60;;;3.10;;
58081;SDS011;43876;55.576;38.242;2022-08-21T14:30:54;12.18;;;3.35;;
58081;SDS011;43876;55.576;38.242;2022-08-21T14:35:55;7.35;;;4.22;;
58081;SDS011;43876;55.576;38.242;2022-08-21T14:38:22;10.52;;;4.38;;
58081;SDS011;43876;55.576;38.242;2022-08-21T14:40:54;19.88;;;7.90;;
58081;SDS011;43876;55.576;38.242;2022-08-21T14:43:25;26.05;;;20.33;;
58081;SDS011;43876;55.576;38.242;2022-08-21T14:48:21;43.72;;;32.15;;
58081;SDS011;43876;55.576;38.242;2022-08-21T14:50:48;43.38;;;35.35;;
58081;SDS011;43876;55.576;38.242;2022-08-21T14:53:18;48.20;;;38.03;;
58081;SDS011;43876;55.576;38.242;2022-08-21T14:55:45;51.53;;;40.55;;
58081;SDS011;43876;55.576;38.242;2022-08-21T14:58:32;47.55;;;41.22;;
58081;SDS011;43876;55.576;38.242;2022-08-21T15:01:07;48.53;;;40.08;;
58081;SDS011;43876;55.576;38.242;2022-08-21T15:03:37;51.20;;;42.75;;
58081;SDS011;43876;55.576;38.242;2022-08-21T15:06:05;48.65;;;41.63;;
58081;SDS011;43876;55.576;38.242;2022-08-21T15:08:33;50.38;;;43.30;;
58081;SDS011;43876;55.576;38.242;2022-08-21T15:11:01;56.25;;;45.33;;
58081;SDS011;43876;55.576;38.242;2022-08-21T15:13:55;54.70;;;44.13;;
58081;SDS011;43876;55.576;38.242;2022-08-21T15:16:24;58.50;;;44.20;;
58081;SDS011;43876;55.576;38.242;2022-08-21T15:18:54;57.10;;;44.90;;
58081;SDS011;43876;55.576;38.242;2022-08-21T15:21:21;53.72;;;44.75;;
58081;SDS011;43876;55.576;38.242;2022-08-21T15:23:48;56.58;;;48.45;;
58081;SDS011;43876;55.576;38.242;2022-08-21T15:26:15;56.28;;;46.40;;
58081;SDS011;43876;55.576;38.242;2022-08-21T15:28:42;55.65;;;47.00;;
58081;SDS011;43876;55.576;38.242;2022-08-21T15:31:10;52.55;;;45.20;;
58081;SDS011;43876;55.576;38.242;2022-08-21T15:33:37;54.17;;;46.15;;
58081;SDS011;43876;55.576;38.242;2022-08-21T15:36:04;56.72;;;45.60;;
58081;SDS011;43876;55.576;38.242;2022-08-21T15:38:31;60.05;;;45.42;;
58081;SDS011;43876;55.576;38.242;2022-08-21T15:40:58;55.53;;;45.78;;
58081;SDS011;43876;55.576;38.242;2022-08-21T15:43:29;54.50;;;44.70;;
58081;SDS011;43876;55.576;38.242;2022-08-21T15:46:00;54.30;;;43.58;;
58081;SDS011;43876;55.576;38.242;2022-08-21T15:48:28;53.55;;;44.65;;
58081;SDS011;43876;55.576;38.242;2022-08-21T15:50:55;55.28;;;45.72;;
58081;SDS011;43876;55.576;38.242;2022-08-21T15:53:22;52.28;;;42.28;;
58081;SDS011;43876;55.576;38.242;2022-08-21T15:55:50;57.28;;;43.03;;
58081;SDS011;43876;55.576;38.242;2022-08-21T15:58:17;56.78;;;42.55;;
58081;SDS011;43876;55.576;38.242;2022-08-21T16:00:47;51.88;;;41.15;;
58081;SDS011;43876;55.576;38.242;2022-08-21T16:03:15;50.22;;;40.97;;
58081;SDS011;43876;55.576;38.242;2022-08-21T16:05:49;51.15;;;41.88;;
58081;SDS011;43876;55.576;38.242;2022-08-21T16:08:19;53.10;;;41.60;;
58081;SDS011;43876;55.576;38.242;2022-08-21T16:10:47;48.00;;;39.50;;
58081;SDS011;43876;55.576;38.242;2022-08-21T16:13:16;47.15;;;39.20;;
58081;SDS011;43876;55.576;38.242;2022-08-21T16:15:49;52.13;;;40.60;;
58081;SDS011;43876;55.576;38.242;2022-08-21T16:18:17;47.15;;;38.83;;
58081;SDS011;43876;55.576;38.242;2022-08-21T16:20:45;52.15;;;39.83;;